TAF/METAR LISTING

Current time:11/14/19:43 Z
Looking Back to:11/14/19:43 Z, going back 0 hour(s)

METAR:

PAFA 141853Z 03015KT 10SM FEW055 OVC080 M12/M19 A2947 RMK AO2
SNE21 SLP993 T11221189 =

______________________________________

TAF:
TAFAFA
TAF AMD
PAFA 141758Z 1418/1524 03016KT P6SM -SN SCT030 OVC045
FM142300 04015G25KT 1SM -SN BLSN OVC015
FM150900 03014KT 3SM -SN BLSN BKN015 OVC030
FM151500 03012KT 6SM -SN BKN030 OVC050
FM152000 04009KT P6SM SCT050 OVC100 =